createdAt,value
2018-10-01T00:01:38.500Z,12.10
2018-10-01T00:04:07.913Z,12.10
2018-10-01T00:06:36.927Z,12.10
2018-10-01T00:09:07.428Z,12.10
2018-10-01T00:11:36.859Z,12.00
2018-10-01T00:14:05.978Z,11.90
2018-10-01T00:16:35.089Z,11.90
2018-10-01T00:19:08.278Z,11.90
2018-10-01T00:21:42.601Z,11.90
2018-10-01T00:24:11.824Z,11.80
2018-10-01T00:26:40.951Z,11.80
2018-10-01T00:29:10.053Z,11.80
2018-10-01T00:31:39.077Z,11.80
2018-10-01T00:34:08.161Z,11.80
2018-10-01T00:36:37.475Z,11.80
2018-10-01T00:39:08.463Z,11.80
2018-10-01T00:41:37.590Z,11.80
2018-10-01T00:44:07.123Z,11.80
2018-10-01T00:46:36.753Z,11.70
2018-10-01T00:49:06.062Z,11.70
2018-10-01T00:51:35.405Z,11.70
2018-10-01T00:54:04.724Z,11.70
2018-10-01T00:56:33.839Z,11.70
2018-10-01T00:59:02.946Z,11.70
2018-10-01T01:01:32.199Z,11.70
2018-10-01T01:04:01.364Z,11.70
2018-10-01T01:06:30.421Z,11.70
2018-10-01T01:08:59.575Z,11.70
2018-10-01T01:11:28.910Z,11.60
2018-10-01T01:13:58.101Z,11.60
2018-10-01T01:16:27.264Z,11.60
2018-10-01T01:18:56.409Z,11.60
2018-10-01T01:21:25.652Z,11.60
2018-10-01T01:23:54.926Z,11.60
2018-10-01T01:26:24.005Z,11.50
2018-10-01T01:28:52.982Z,11.50
2018-10-01T01:31:23.165Z,11.50
2018-10-01T01:33:52.410Z,11.50
2018-10-01T01:36:21.635Z,11.50
2018-10-01T01:38:50.893Z,11.50
2018-10-01T01:41:19.971Z,11.50
2018-10-01T01:43:49.260Z,11.40
2018-10-01T01:46:18.561Z,11.40
2018-10-01T01:48:47.646Z,11.40
2018-10-01T01:51:16.550Z,11.40
2018-10-01T01:53:45.503Z,11.40
2018-10-01T01:56:14.863Z,11.30
2018-10-01T01:58:44.079Z,11.40
2018-10-01T02:01:13.139Z,11.30
2018-10-01T02:03:42.119Z,11.30
2018-10-01T02:06:11.386Z,11.30
2018-10-01T02:08:40.433Z,11.30
2018-10-01T02:11:09.698Z,11.30
2018-10-01T02:13:38.992Z,11.30
2018-10-01T02:16:08.094Z,11.30
2018-10-01T02:18:37.101Z,11.20
2018-10-01T02:21:06.423Z,11.20
2018-10-01T02:23:35.798Z,11.20
2018-10-01T02:26:05.047Z,11.10
2018-10-01T02:28:34.344Z,11.10
2018-10-01T02:31:03.452Z,11.10
2018-10-01T02:33:32.553Z,11.10
2018-10-01T02:36:01.716Z,11.10
2018-10-01T02:38:30.932Z,11.10
2018-10-01T02:41:00.167Z,11.00
2018-10-01T02:43:29.360Z,11.00
2018-10-01T02:45:58.636Z,10.90
2018-10-01T02:48:27.738Z,10.90
2018-10-01T02:50:56.823Z,10.90
2018-10-01T02:53:30.941Z,10.90
2018-10-01T02:56:00.333Z,10.70
2018-10-01T02:58:29.560Z,10.70
2018-10-01T03:00:58.657Z,10.70
2018-10-01T03:03:27.903Z,10.70
2018-10-01T03:05:57.199Z,10.60
2018-10-01T03:08:26.617Z,10.60
2018-10-01T03:10:55.853Z,10.60
2018-10-01T03:13:25.093Z,10.60
2018-10-01T03:15:54.332Z,10.60
2018-10-01T03:18:23.684Z,10.60
2018-10-01T03:20:52.960Z,10.60
2018-10-01T03:23:22.014Z,10.60
2018-10-01T03:25:51.157Z,10.50
2018-10-01T03:28:20.259Z,10.60
2018-10-01T03:30:49.728Z,10.60
2018-10-01T03:33:18.866Z,10.50
2018-10-01T03:35:47.969Z,10.50
2018-10-01T03:38:17.249Z,10.50
2018-10-01T03:40:46.347Z,10.50
2018-10-01T03:43:15.391Z,10.50
2018-10-01T03:45:50.073Z,10.40
2018-10-01T03:48:20.657Z,10.50
2018-10-01T03:50:49.890Z,10.50
2018-10-01T03:53:18.970Z,10.50
2018-10-01T03:55:47.929Z,10.50
2018-10-01T03:58:17.056Z,10.50
2018-10-01T04:00:46.136Z,10.50
2018-10-01T04:03:15.070Z,10.50
2018-10-01T04:05:44.032Z,10.40
2018-10-01T04:08:13.200Z,10.40
2018-10-01T04:10:42.267Z,10.40
2018-10-01T04:13:11.493Z,10.40
2018-10-01T04:15:40.440Z,10.40
2018-10-01T04:18:09.502Z,10.40
2018-10-01T04:20:38.951Z,10.40
2018-10-01T04:23:08.251Z,10.40
2018-10-01T04:25:37.476Z,10.30
2018-10-01T04:28:06.681Z,10.30
2018-10-01T04:30:35.804Z,10.30
2018-10-01T04:33:05.027Z,10.30
2018-10-01T04:35:34.347Z,10.30
2018-10-01T04:38:03.598Z,10.20
2018-10-01T04:40:32.841Z,10.10
2018-10-01T04:43:01.926Z,10.00
2018-10-01T04:45:31.049Z,10.00
2018-10-01T04:48:00.005Z,10.10
2018-10-01T04:50:29.095Z,10.00
2018-10-01T04:52:59.041Z,10.00
2018-10-01T04:55:27.962Z,10.00
2018-10-01T04:57:57.118Z,10.00
2018-10-01T05:00:26.315Z,10.00
2018-10-01T05:02:55.620Z,9.90
2018-10-01T05:05:24.926Z,9.90
2018-10-01T05:07:54.155Z,9.90
2018-10-01T05:10:23.443Z,9.90
2018-10-01T05:12:52.946Z,9.90
2018-10-01T05:15:22.263Z,9.90
2018-10-01T05:17:51.406Z,9.80
2018-10-01T05:20:20.573Z,9.80
2018-10-01T05:22:49.534Z,9.70
2018-10-01T05:25:18.769Z,9.70
2018-10-01T05:27:48.039Z,9.80
2018-10-01T05:30:17.136Z,9.80
2018-10-01T05:32:46.305Z,9.80
2018-10-01T05:35:15.525Z,9.80
2018-10-01T05:37:44.633Z,9.70
2018-10-01T05:40:14.122Z,9.70
2018-10-01T05:42:43.454Z,9.60
2018-10-01T05:45:12.527Z,9.60
2018-10-01T05:47:41.698Z,9.60
2018-10-01T05:50:10.827Z,9.60
2018-10-01T05:52:39.837Z,9.50
2018-10-01T05:55:08.922Z,9.50
2018-10-01T05:57:38.523Z,9.50
2018-10-01T06:00:07.727Z,9.50
2018-10-01T06:02:36.899Z,9.40
2018-10-01T06:05:06.108Z,9.40
2018-10-01T06:07:35.360Z,9.40
2018-10-01T06:10:04.500Z,9.40
2018-10-01T06:12:33.708Z,9.30
2018-10-01T06:15:02.909Z,9.20
2018-10-01T06:17:32.269Z,9.20
2018-10-01T06:20:01.605Z,9.20
2018-10-01T06:22:30.741Z,9.10
2018-10-01T06:25:00.029Z,9.10
2018-10-01T06:27:29.222Z,9.10
2018-10-01T06:29:58.472Z,9.10
2018-10-01T06:32:27.673Z,9.20
2018-10-01T06:34:57.161Z,9.20
2018-10-01T06:37:26.395Z,9.20
2018-10-01T06:39:55.909Z,9.20
2018-10-01T06:42:25.388Z,9.20
2018-10-01T06:44:54.632Z,9.20
2018-10-01T06:47:23.899Z,9.20
2018-10-01T06:49:53.156Z,9.30
2018-10-01T06:52:22.529Z,9.40
2018-10-01T06:54:51.531Z,9.40
2018-10-01T06:57:20.785Z,9.60
2018-10-01T06:59:49.959Z,9.60
2018-10-01T07:02:19.266Z,9.60
2018-10-01T07:04:48.620Z,9.60
2018-10-01T07:07:17.857Z,9.60
2018-10-01T07:09:47.216Z,9.70
2018-10-01T07:12:16.417Z,9.70
2018-10-01T07:14:45.568Z,9.70
2018-10-01T07:17:14.962Z,9.80
2018-10-01T07:19:43.974Z,9.90
2018-10-01T07:22:13.089Z,9.80
2018-10-01T07:24:42.198Z,9.90
2018-10-01T07:27:11.444Z,10.10
2018-10-01T07:29:40.453Z,10.10
2018-10-01T07:32:08.910Z,10.30
2018-10-01T07:34:37.837Z,10.30
2018-10-01T07:37:06.959Z,10.40
2018-10-01T07:39:36.031Z,10.50
2018-10-01T07:42:04.904Z,10.40
2018-10-01T07:44:34.251Z,10.70
2018-10-01T07:47:03.475Z,10.70
2018-10-01T07:49:32.671Z,10.60
2018-10-01T07:52:01.985Z,10.60
2018-10-01T07:54:31.235Z,10.70
2018-10-01T07:57:00.583Z,10.90
2018-10-01T07:59:29.812Z,10.90
2018-10-01T08:01:58.940Z,11.10
2018-10-01T08:04:28.566Z,11.30
2018-10-01T08:06:57.752Z,11.70
2018-10-01T08:09:26.972Z,11.50
2018-10-01T08:11:56.444Z,11.60
2018-10-01T08:14:25.622Z,11.70
2018-10-01T08:16:54.714Z,11.70
2018-10-01T08:19:24.218Z,11.70
2018-10-01T08:21:53.360Z,11.80
2018-10-01T08:24:22.663Z,11.90
2018-10-01T08:26:51.919Z,11.70
2018-10-01T08:29:21.745Z,11.80
2018-10-01T08:31:50.948Z,12.10
2018-10-01T08:34:20.108Z,12.10
2018-10-01T08:36:49.475Z,12.20
2018-10-01T08:39:18.555Z,12.30
2018-10-01T08:41:47.760Z,12.40
2018-10-01T08:44:16.847Z,12.50
2018-10-01T08:46:46.092Z,12.50
2018-10-01T08:49:20.463Z,12.60
2018-10-01T08:52:54.885Z,12.90
2018-10-01T08:55:24.492Z,12.70
2018-10-01T08:57:53.909Z,12.90
2018-10-01T09:00:22.923Z,13.10
2018-10-01T09:02:52.213Z,13.30
2018-10-01T09:05:21.333Z,13.30
2018-10-01T09:07:50.384Z,13.40
2018-10-01T09:10:19.789Z,13.30
2018-10-01T09:12:49.219Z,13.60
2018-10-01T09:15:18.520Z,13.90
2018-10-01T09:17:47.589Z,13.70
2018-10-01T09:20:17.100Z,13.60
2018-10-01T09:22:46.231Z,13.50
2018-10-01T09:25:15.794Z,13.70
2018-10-01T09:27:44.692Z,14.00
2018-10-01T09:30:14.040Z,14.00
2018-10-01T09:32:43.439Z,14.10
2018-10-01T09:35:12.645Z,13.90
2018-10-01T09:37:41.860Z,14.10
2018-10-01T09:40:11.136Z,14.30
2018-10-01T09:42:40.397Z,14.50
2018-10-01T09:45:09.592Z,14.30
2018-10-01T09:47:38.765Z,13.90
2018-10-01T09:50:08.253Z,13.40
2018-10-01T09:52:37.391Z,13.50
2018-10-01T09:55:06.905Z,13.60
2018-10-01T09:57:36.328Z,13.50
2018-10-01T10:00:05.704Z,13.30
2018-10-01T10:02:34.963Z,13.40
2018-10-01T10:05:04.255Z,13.40
2018-10-01T10:07:33.534Z,13.10
2018-10-01T10:10:03.114Z,12.80
2018-10-01T10:12:32.340Z,13.00
2018-10-01T10:15:01.422Z,13.00
2018-10-01T10:17:30.511Z,13.30
2018-10-01T10:19:59.853Z,13.40
2018-10-01T10:22:29.225Z,13.30
2018-10-01T10:24:58.638Z,13.50
2018-10-01T10:27:27.790Z,13.60
2018-10-01T10:29:57.087Z,13.40
2018-10-01T10:32:26.677Z,13.40
2018-10-01T10:34:55.848Z,13.20
2018-10-01T10:37:24.938Z,13.10
2018-10-01T10:39:54.075Z,12.90
2018-10-01T10:42:23.466Z,13.10
2018-10-01T10:44:52.600Z,12.80
2018-10-01T10:47:22.150Z,12.90
2018-10-01T10:49:51.550Z,12.90
2018-10-01T10:52:20.812Z,13.10
2018-10-01T10:54:50.161Z,13.10
2018-10-01T10:57:19.235Z,13.20
2018-10-01T10:59:48.359Z,13.20
2018-10-01T11:02:17.680Z,13.20
2018-10-01T11:04:47.039Z,13.20
2018-10-01T11:07:16.286Z,13.30
2018-10-01T11:09:45.560Z,13.30
2018-10-01T11:12:14.987Z,13.20
2018-10-01T11:14:44.281Z,13.20
2018-10-01T11:17:13.375Z,13.20
2018-10-01T11:19:42.703Z,12.90
2018-10-01T11:22:12.379Z,12.80
2018-10-01T11:24:41.809Z,12.90
2018-10-01T11:27:11.004Z,12.90
2018-10-01T11:29:40.340Z,13.00
2018-10-01T11:32:09.393Z,13.00
2018-10-01T11:34:38.690Z,13.00
2018-10-01T11:37:07.812Z,13.00
2018-10-01T11:39:36.995Z,13.00
2018-10-01T11:42:06.191Z,13.10
2018-10-01T11:44:35.252Z,13.30
2018-10-01T11:47:04.369Z,13.30
2018-10-01T11:49:33.513Z,13.30
2018-10-01T11:52:02.763Z,13.50
2018-10-01T11:54:31.917Z,13.50
2018-10-01T11:57:01.383Z,13.50
2018-10-01T11:59:31.037Z,13.40
2018-10-01T12:02:00.397Z,13.50
2018-10-01T12:04:29.805Z,13.60
2018-10-01T12:06:59.142Z,13.60
2018-10-01T12:09:28.414Z,13.60
2018-10-01T12:11:57.573Z,13.60
2018-10-01T12:14:26.782Z,13.60
2018-10-01T12:16:56.072Z,13.50
2018-10-01T12:19:25.296Z,13.50
2018-10-01T12:21:55.459Z,13.40
2018-10-01T12:24:24.681Z,13.20
2018-10-01T12:26:53.803Z,12.70
2018-10-01T12:29:22.964Z,12.40
2018-10-01T12:31:52.533Z,12.20
2018-10-01T12:34:21.659Z,12.00
2018-10-01T12:36:50.753Z,12.30
2018-10-01T12:39:20.294Z,12.30
2018-10-01T12:41:49.714Z,12.40
2018-10-01T12:44:19.058Z,12.40
2018-10-01T12:46:48.535Z,12.50
2018-10-01T12:49:18.100Z,12.40
2018-10-01T12:51:47.306Z,12.40
2018-10-01T12:54:16.550Z,12.40
2018-10-01T12:56:45.867Z,12.40
2018-10-01T12:59:14.901Z,12.30
2018-10-01T13:01:44.069Z,12.40
2018-10-01T13:04:13.117Z,12.60
2018-10-01T13:06:41.915Z,12.70
2018-10-01T13:09:12.357Z,12.80
2018-10-01T13:11:41.847Z,13.10
2018-10-01T13:14:10.892Z,13.30
2018-10-01T13:16:40.256Z,13.90
2018-10-01T13:19:09.365Z,14.10
2018-10-01T13:21:38.305Z,14.30
2018-10-01T13:24:07.346Z,14.90
2018-10-01T13:26:37.180Z,14.80
2018-10-01T13:29:06.374Z,15.10
2018-10-01T13:31:35.560Z,15.50
2018-10-01T13:34:04.777Z,15.70
2018-10-01T13:36:33.789Z,15.40
2018-10-01T13:39:03.048Z,15.10
2018-10-01T13:41:32.259Z,14.60
2018-10-01T13:44:01.590Z,14.30
2018-10-01T13:46:31.104Z,14.30
2018-10-01T13:49:00.689Z,13.80
2018-10-01T13:51:29.898Z,13.70
2018-10-01T13:53:59.048Z,12.80
2018-10-01T13:56:28.116Z,12.50
2018-10-01T13:58:57.386Z,12.30
2018-10-01T14:01:26.533Z,12.20
2018-10-01T14:03:55.578Z,12.10
2018-10-01T14:06:24.814Z,12.10
2018-10-01T14:08:54.306Z,12.50
2018-10-01T14:11:23.463Z,12.90
2018-10-01T14:13:52.730Z,13.30
2018-10-01T14:16:21.803Z,13.40
2018-10-01T14:18:51.534Z,13.60
2018-10-01T14:21:20.712Z,13.90
2018-10-01T14:23:49.764Z,13.90
2018-10-01T14:26:18.881Z,14.10
2018-10-01T14:28:48.058Z,14.20
2018-10-01T14:31:17.303Z,14.10
2018-10-01T14:33:46.215Z,14.20
2018-10-01T14:36:15.420Z,14.30
2018-10-01T14:38:44.684Z,13.90
2018-10-01T14:41:14.370Z,13.80
2018-10-01T14:43:43.677Z,13.50
2018-10-01T14:46:13.350Z,13.40
2018-10-01T14:48:42.290Z,13.10
2018-10-01T14:51:11.431Z,12.50
2018-10-01T14:53:40.537Z,12.50
2018-10-01T14:56:09.667Z,12.30
2018-10-01T14:58:38.785Z,12.50
2018-10-01T15:01:07.892Z,12.70
2018-10-01T15:03:36.997Z,13.00
2018-10-01T15:06:06.168Z,13.30
2018-10-01T15:08:35.293Z,13.40
2018-10-01T15:11:04.559Z,13.70
2018-10-01T15:13:34.235Z,13.80
2018-10-01T15:16:03.500Z,13.90
2018-10-01T15:18:32.777Z,13.80
2018-10-01T15:21:02.698Z,14.00
2018-10-01T15:23:31.920Z,14.60
2018-10-01T15:26:01.154Z,14.70
2018-10-01T15:28:30.226Z,14.50
2018-10-01T15:30:59.782Z,14.50
2018-10-01T15:33:29.727Z,14.50
2018-10-01T15:36:02.187Z,14.40
2018-10-01T15:38:31.350Z,14.20
2018-10-01T15:41:01.080Z,14.00
2018-10-01T15:43:30.339Z,13.80
2018-10-01T15:45:59.367Z,13.50
2018-10-01T15:48:28.478Z,13.20
2018-10-01T15:50:57.950Z,13.00
2018-10-01T15:53:27.163Z,12.80
2018-10-01T15:55:56.436Z,12.50
2018-10-01T15:58:25.523Z,12.60
2018-10-01T16:00:54.947Z,12.20
2018-10-01T16:03:24.045Z,12.20
2018-10-01T16:05:53.392Z,11.90
2018-10-01T16:08:22.976Z,11.90
2018-10-01T16:10:52.153Z,11.70
2018-10-01T16:13:21.487Z,11.70
2018-10-01T16:15:50.993Z,11.50
2018-10-01T16:18:20.208Z,11.50
2018-10-01T16:20:49.402Z,11.60
2018-10-01T16:23:18.574Z,11.60
2018-10-01T16:25:48.024Z,11.40
2018-10-01T16:28:17.199Z,11.40
2018-10-01T16:30:46.575Z,11.50
2018-10-01T16:33:15.700Z,11.60
2018-10-01T16:35:45.057Z,11.40
2018-10-01T16:38:14.173Z,11.20
2018-10-01T16:40:43.523Z,11.20
2018-10-01T16:43:12.746Z,11.20
2018-10-01T16:45:41.820Z,11.30
2018-10-01T16:48:11.197Z,11.20
2018-10-01T16:50:40.524Z,10.90
2018-10-01T16:53:09.780Z,11.00
2018-10-01T16:55:39.186Z,10.80
2018-10-01T16:58:08.399Z,10.70
2018-10-01T17:00:37.775Z,10.70
2018-10-01T17:03:07.306Z,10.60
2018-10-01T17:05:36.351Z,10.60
2018-10-01T17:08:05.776Z,10.60
2018-10-01T17:10:35.108Z,10.50
2018-10-01T17:13:04.437Z,10.40
2018-10-01T17:15:33.785Z,10.40
2018-10-01T17:18:03.380Z,10.30
2018-10-01T17:20:32.621Z,10.20
2018-10-01T17:23:01.762Z,10.10
2018-10-01T17:25:30.955Z,10.20
2018-10-01T17:28:00.188Z,10.10
2018-10-01T17:30:29.683Z,10.00
2018-10-01T17:32:58.905Z,9.90
2018-10-01T17:35:28.264Z,10.00
2018-10-01T17:37:57.520Z,9.80
2018-10-01T17:40:27.029Z,9.60
2018-10-01T17:42:56.311Z,9.60
2018-10-01T17:45:25.407Z,9.60
2018-10-01T17:47:54.614Z,9.60
2018-10-01T17:50:24.075Z,9.50
2018-10-01T17:52:53.297Z,9.40
2018-10-01T17:55:22.619Z,9.40
2018-10-01T17:57:51.865Z,9.40
2018-10-01T18:00:21.140Z,9.30
2018-10-01T18:02:50.299Z,9.40
2018-10-01T18:05:19.851Z,9.50
2018-10-01T18:07:48.848Z,9.50
2018-10-01T18:10:18.022Z,9.40
2018-10-01T18:12:47.732Z,9.50
2018-10-01T18:15:16.776Z,9.50
2018-10-01T18:17:46.055Z,9.40
2018-10-01T18:20:15.297Z,9.40
2018-10-01T18:22:44.601Z,9.40
2018-10-01T18:25:13.764Z,9.40
2018-10-01T18:27:42.965Z,9.50
2018-10-01T18:30:12.284Z,9.40
2018-10-01T18:32:41.909Z,9.40
2018-10-01T18:35:11.208Z,9.40
2018-10-01T18:37:40.527Z,9.40
2018-10-01T18:40:11.936Z,9.30
2018-10-01T18:42:41.224Z,9.30
2018-10-01T18:45:10.511Z,9.20
2018-10-01T18:47:39.700Z,9.20
2018-10-01T18:50:08.863Z,9.10
2018-10-01T18:52:38.077Z,9.10
2018-10-01T18:55:07.882Z,9.00
2018-10-01T18:57:37.170Z,8.90
2018-10-01T19:00:07.513Z,8.80
2018-10-01T19:02:36.946Z,8.70
2018-10-01T19:05:06.362Z,8.70
2018-10-01T19:07:35.637Z,8.60
2018-10-01T19:10:04.998Z,8.50
2018-10-01T19:12:34.338Z,8.50
2018-10-01T19:15:03.542Z,8.60
2018-10-01T19:17:33.209Z,8.50
2018-10-01T19:20:02.253Z,8.50
2018-10-01T19:22:31.621Z,8.50
2018-10-01T19:25:00.929Z,8.50
2018-10-01T19:27:30.141Z,8.50
2018-10-01T19:29:59.378Z,8.40
2018-10-01T19:32:28.606Z,8.40
2018-10-01T19:34:57.803Z,8.30
2018-10-01T19:37:26.944Z,8.30
2018-10-01T19:39:56.255Z,8.20
2018-10-01T19:42:25.735Z,8.20
2018-10-01T19:44:55.088Z,8.20
2018-10-01T19:47:24.243Z,8.10
2018-10-01T19:49:53.564Z,8.10
2018-10-01T19:52:22.687Z,8.10
2018-10-01T19:54:52.546Z,8.00
2018-10-01T19:57:21.831Z,8.00
2018-10-01T19:59:51.161Z,8.00
2018-10-01T20:02:20.312Z,8.00
2018-10-01T20:04:49.546Z,7.90
2018-10-01T20:07:18.758Z,7.90
2018-10-01T20:09:47.807Z,7.70
2018-10-01T20:12:17.080Z,7.70
2018-10-01T20:14:46.607Z,7.70
2018-10-01T20:17:15.760Z,7.70
2018-10-01T20:19:44.989Z,7.70
2018-10-01T20:22:14.962Z,7.70
2018-10-01T20:24:44.293Z,7.70
2018-10-01T20:27:13.664Z,7.60
2018-10-01T20:29:43.241Z,7.60
2018-10-01T20:32:12.421Z,7.70
2018-10-01T20:34:42.160Z,7.70
2018-10-01T20:37:11.331Z,7.60
2018-10-01T20:39:40.662Z,7.60
2018-10-01T20:42:09.769Z,7.60
2018-10-01T20:44:38.776Z,7.50
2018-10-01T20:47:07.997Z,7.50
2018-10-01T20:49:37.750Z,7.50
2018-10-01T20:52:06.987Z,7.60
2018-10-01T20:54:36.233Z,7.50
2018-10-01T20:57:05.593Z,7.40
2018-10-01T20:59:34.884Z,7.50
2018-10-01T21:02:04.106Z,7.40
2018-10-01T21:04:33.337Z,7.40
2018-10-01T21:07:02.505Z,7.40
2018-10-01T21:09:31.618Z,7.30
2018-10-01T21:12:00.960Z,7.30
2018-10-01T21:14:30.145Z,7.20
2018-10-01T21:16:59.373Z,7.20
2018-10-01T21:19:28.535Z,7.10
2018-10-01T21:21:57.595Z,7.10
2018-10-01T21:24:26.857Z,7.10
2018-10-01T21:26:56.201Z,7.00
2018-10-01T21:29:25.378Z,7.00
2018-10-01T21:31:54.679Z,6.90
2018-10-01T21:34:24.166Z,6.90
2018-10-01T21:36:53.275Z,6.80
2018-10-01T21:40:31.009Z,6.80
2018-10-01T21:43:00.379Z,6.70
2018-10-01T21:45:29.875Z,6.70
2018-10-01T21:47:58.903Z,6.70
2018-10-01T21:50:28.274Z,6.70
2018-10-01T21:52:57.567Z,6.60
2018-10-01T21:55:26.731Z,6.60
2018-10-01T21:57:58.178Z,6.60
2018-10-01T22:00:31.293Z,6.60
2018-10-01T22:03:00.692Z,6.60
2018-10-01T22:05:29.703Z,6.60
2018-10-01T22:07:58.881Z,6.60
2018-10-01T22:10:28.026Z,6.60
2018-10-01T22:12:57.360Z,6.60
2018-10-01T22:15:30.680Z,6.60
2018-10-01T22:17:59.863Z,6.60
2018-10-01T22:20:29.097Z,6.60
2018-10-01T22:22:58.295Z,6.60
2018-10-01T22:25:27.574Z,6.60
2018-10-01T22:27:56.750Z,6.60
2018-10-01T22:30:26.001Z,6.50
2018-10-01T22:32:55.016Z,6.50
2018-10-01T22:35:24.317Z,6.40
2018-10-01T22:37:53.450Z,6.40
2018-10-01T22:40:22.881Z,6.40
2018-10-01T22:42:52.271Z,6.40
2018-10-01T22:45:21.457Z,6.30
2018-10-01T22:47:50.650Z,6.30
2018-10-01T22:50:20.170Z,6.30
2018-10-01T22:52:49.436Z,6.10
2018-10-01T22:55:18.682Z,6.10
2018-10-01T22:57:48.178Z,6.10
2018-10-01T23:00:17.374Z,6.10
2018-10-01T23:02:46.643Z,6.10
2018-10-01T23:05:15.916Z,6.10
2018-10-01T23:07:45.458Z,6.10
2018-10-01T23:10:14.719Z,6.20
2018-10-01T23:12:44.275Z,6.20
2018-10-01T23:15:13.476Z,6.10
2018-10-01T23:17:42.707Z,6.10
2018-10-01T23:20:11.997Z,6.10
2018-10-01T23:22:41.273Z,6.00
2018-10-01T23:25:10.459Z,6.00
2018-10-01T23:27:39.641Z,6.00
2018-10-01T23:30:08.749Z,6.00
2018-10-01T23:32:37.873Z,5.90
2018-10-01T23:35:07.229Z,5.80
2018-10-01T23:37:36.281Z,5.90
2018-10-01T23:40:05.725Z,5.90
2018-10-01T23:42:34.921Z,5.80
2018-10-01T23:45:04.200Z,5.90
2018-10-01T23:47:33.539Z,5.90
2018-10-01T23:50:02.963Z,5.90
2018-10-01T23:52:32.215Z,5.90
2018-10-01T23:55:01.913Z,5.90
2018-10-01T23:57:31.336Z,5.90
